weather.gov     
National Weather Service

Terminal Aerodrome Forecast
NWS Homepage
This page is being discontinued on March 12, 2014.
The same data is available at this site. Please update your bookmarks.
Thank you, and we apologize for the inconvenience.
Please send an email to SR-SRH.Webmaster@noaa.gov with any concerns.


Current Version
Previous Version:    01  02  03  04  05  06  07  08  09  10  11  12  13  14  15  16  17  18  19  20  21  22  23  24  25  26  27  28  29  30  
   31  32  33  34  35  36  37  38  39  40  41  42  43  44  45  46  47  
[Printable]
624
FTUS44 KHGX 211739
TAFHOU
TAF
KHOU 211739Z 2118/2218 13015KT P6SM VCSH SCT020 BKN030
      TEMPO 2118/2121 5SM -SHRA BKN015 OVC035
     FM220000 12010KT P6SM SCT015 BKN025
     FM220300 13016KT P6SM BKN015
     FM220600 13011KT P6SM VCSH BKN015
     FM221500 13015G24KT P6SM -RA BKN020 PROB30 2215/2218 3SM SHRA=




624
FTUS44 KHGX 211739
TAFHOU
TAF
KHOU 211739Z 2118/2218 13015KT P6SM VCSH SCT020 BKN030
      TEMPO 2118/2121 5SM -SHRA BKN015 OVC035
     FM220000 12010KT P6SM SCT015 BKN025
     FM220300 13016KT P6SM BKN015
     FM220600 13011KT P6SM VCSH BKN015
     FM221500 13015G24KT P6SM -RA BKN020 PROB30 2215/2218 3SM SHRA=


U.S. Dept. of Commerce
NOAA National Weather Service
1325 East West Highway
Silver Spring, MD 20910
E-mail: w-nws.webmaster@noaa.gov
Page last modified: May 16, 2007
NATIONAL WEATHER SERVICE: for Safety, for Work, for Fun - FOR LIFE